sensor_id;sensor_type;location;lat;lon;timestamp;temperature;humidity
47520;DHT22;33252;48.122;11.538;2023-11-21T00:01:16;7.20;99.90
47520;DHT22;33252;48.122;11.538;2023-11-21T00:03:42;7.20;99.90
47520;DHT22;33252;48.122;11.538;2023-11-21T00:06:08;7.10;99.90
47520;DHT22;33252;48.122;11.538;2023-11-21T00:08:37;7.10;99.90
47520;DHT22;33252;48.122;11.538;2023-11-21T00:11:02;7.00;99.90
47520;DHT22;33252;48.122;11.538;2023-11-21T00:13:33;7.00;99.90
47520;DHT22;33252;48.122;11.538;2023-11-21T00:15:59;7.00;99.90
47520;DHT22;33252;48.122;11.538;2023-11-21T00:18:25;7.00;99.90
47520;DHT22;33252;48.122;11.538;2023-11-21T00:20:50;7.10;99.90
47520;DHT22;33252;48.122;11.538;2023-11-21T00:23:16;7.10;99.90
47520;DHT22;33252;48.122;11.538;2023-11-21T00:25:42;7.10;99.90
47520;DHT22;33252;48.122;11.538;2023-11-21T00:28:07;7.10;99.90
47520;DHT22;33252;48.122;11.538;2023-11-21T00:30:33;7.10;99.90
47520;DHT22;33252;48.122;11.538;2023-11-21T00:32:58;7.10;99.90
47520;DHT22;33252;48.122;11.538;2023-11-21T00:35:24;7.00;99.90
47520;DHT22;33252;48.122;11.538;2023-11-21T00:37:49;7.00;99.90
47520;DHT22;33252;48.122;11.538;2023-11-21T00:40:15;7.00;99.90
47520;DHT22;33252;48.122;11.538;2023-11-21T00:42:41;7.00;99.90
47520;DHT22;33252;48.122;11.538;2023-11-21T00:45:08;7.10;99.90
47520;DHT22;33252;48.122;11.538;2023-11-21T00:47:33;7.20;99.90
47520;DHT22;33252;48.122;11.538;2023-11-21T00:49:59;7.20;99.90
47520;DHT22;33252;48.122;11.538;2023-11-21T00:52:25;7.20;99.90
47520;DHT22;33252;48.122;11.538;2023-11-21T00:54:50;7.10;99.90
47520;DHT22;33252;48.122;11.538;2023-11-21T00:57:16;7.10;99.90
47520;DHT22;33252;48.122;11.538;2023-11-21T00:59:41;7.10;99.90
47520;DHT22;33252;48.122;11.538;2023-11-21T01:02:07;7.20;99.90
47520;DHT22;33252;48.122;11.538;2023-11-21T01:04:35;7.20;99.90
47520;DHT22;33252;48.122;11.538;2023-11-21T01:07:01;7.20;99.90
47520;DHT22;33252;48.122;11.538;2023-11-21T01:09:26;7.10;99.90
47520;DHT22;33252;48.122;11.538;2023-11-21T01:11:53;7.10;99.90
47520;DHT22;33252;48.122;11.538;2023-11-21T01:14:19;7.00;99.90
47520;DHT22;33252;48.122;11.538;2023-11-21T01:16:44;7.00;99.90
47520;DHT22;33252;48.122;11.538;2023-11-21T01:19:10;6.90;99.90
47520;DHT22;33252;48.122;11.538;2023-11-21T01:21:35;7.00;99.90
47520;DHT22;33252;48.122;11.538;2023-11-21T01:24:01;7.00;99.90
47520;DHT22;33252;48.122;11.538;2023-11-21T01:26:28;7.00;99.90
47520;DHT22;33252;48.122;11.538;2023-11-21T01:28:53;7.00;99.90
47520;DHT22;33252;48.122;11.538;2023-11-21T01:31:20;7.00;99.90
47520;DHT22;33252;48.122;11.538;2023-11-21T01:33:46;7.00;99.90
47520;DHT22;33252;48.122;11.538;2023-11-21T01:36:11;6.90;99.90
47520;DHT22;33252;48.122;11.538;2023-11-21T01:38:37;6.90;99.90
47520;DHT22;33252;48.122;11.538;2023-11-21T01:41:02;6.90;99.90
47520;DHT22;33252;48.122;11.538;2023-11-21T01:43:29;6.90;99.90
47520;DHT22;33252;48.122;11.538;2023-11-21T01:45:57;6.80;99.90
47520;DHT22;33252;48.122;11.538;2023-11-21T01:48:23;6.90;99.90
47520;DHT22;33252;48.122;11.538;2023-11-21T01:50:49;6.90;99.90
47520;DHT22;33252;48.122;11.538;2023-11-21T01:53:16;7.00;99.90
47520;DHT22;33252;48.122;11.538;2023-11-21T01:55:42;7.00;99.90
47520;DHT22;33252;48.122;11.538;2023-11-21T01:58:09;7.10;99.90
47520;DHT22;33252;48.122;11.538;2023-11-21T02:00:36;7.20;99.90
47520;DHT22;33252;48.122;11.538;2023-11-21T02:03:03;7.20;99.90
47520;DHT22;33252;48.122;11.538;2023-11-21T02:05:29;7.20;99.90
47520;DHT22;33252;48.122;11.538;2023-11-21T02:07:55;7.30;99.90
47520;DHT22;33252;48.122;11.538;2023-11-21T02:10:21;7.20;99.90
47520;DHT22;33252;48.122;11.538;2023-11-21T02:12:49;7.20;99.90
47520;DHT22;33252;48.122;11.538;2023-11-21T02:15:18;7.30;99.90
47520;DHT22;33252;48.122;11.538;2023-11-21T02:17:47;7.30;99.90
47520;DHT22;33252;48.122;11.538;2023-11-21T02:20:17;7.30;99.90
47520;DHT22;33252;48.122;11.538;2023-11-21T02:22:48;7.20;99.90
47520;DHT22;33252;48.122;11.538;2023-11-21T02:25:14;7.20;99.90
47520;DHT22;33252;48.122;11.538;2023-11-21T02:27:39;7.20;99.90
47520;DHT22;33252;48.122;11.538;2023-11-21T02:30:05;7.20;99.90
47520;DHT22;33252;48.122;11.538;2023-11-21T02:32:33;7.10;99.90
47520;DHT22;33252;48.122;11.538;2023-11-21T02:34:59;7.00;99.90
47520;DHT22;33252;48.122;11.538;2023-11-21T02:37:33;7.00;99.90
47520;DHT22;33252;48.122;11.538;2023-11-21T02:39:58;6.90;99.90
47520;DHT22;33252;48.122;11.538;2023-11-21T02:42:24;6.90;99.90
47520;DHT22;33252;48.122;11.538;2023-11-21T02:44:50;6.90;99.90
47520;DHT22;33252;48.122;11.538;2023-11-21T02:47:16;6.90;99.90
47520;DHT22;33252;48.122;11.538;2023-11-21T02:49:42;6.80;99.90
47520;DHT22;33252;48.122;11.538;2023-11-21T02:52:07;6.90;99.90
47520;DHT22;33252;48.122;11.538;2023-11-21T02:54:34;6.90;99.90
47520;DHT22;33252;48.122;11.538;2023-11-21T02:57:02;7.00;99.90
47520;DHT22;33252;48.122;11.538;2023-11-21T02:59:27;7.00;99.90
47520;DHT22;33252;48.122;11.538;2023-11-21T03:01:53;6.90;99.90
47520;DHT22;33252;48.122;11.538;2023-11-21T03:04:18;7.00;99.90
47520;DHT22;33252;48.122;11.538;2023-11-21T03:06:45;7.00;99.90
47520;DHT22;33252;48.122;11.538;2023-11-21T03:09:11;7.00;99.90
47520;DHT22;33252;48.122;11.538;2023-11-21T03:11:39;6.90;99.90
47520;DHT22;33252;48.122;11.538;2023-11-21T03:14:05;7.00;99.90
47520;DHT22;33252;48.122;11.538;2023-11-21T03:16:32;6.90;99.90
47520;DHT22;33252;48.122;11.538;2023-11-21T03:18:57;7.00;99.90
47520;DHT22;33252;48.122;11.538;2023-11-21T03:21:24;6.90;99.90
47520;DHT22;33252;48.122;11.538;2023-11-21T03:23:50;6.90;99.90
47520;DHT22;33252;48.122;11.538;2023-11-21T03:26:15;6.90;99.90
47520;DHT22;33252;48.122;11.538;2023-11-21T03:28:41;6.90;99.90
47520;DHT22;33252;48.122;11.538;2023-11-21T03:31:07;6.80;99.90
47520;DHT22;33252;48.122;11.538;2023-11-21T03:33:35;6.80;99.90
47520;DHT22;33252;48.122;11.538;2023-11-21T03:36:01;6.90;99.90
47520;DHT22;33252;48.122;11.538;2023-11-21T03:38:26;6.90;99.90
47520;DHT22;33252;48.122;11.538;2023-11-21T03:40:52;6.80;99.90
47520;DHT22;33252;48.122;11.538;2023-11-21T03:43:18;6.80;99.90
47520;DHT22;33252;48.122;11.538;2023-11-21T03:45:44;6.70;99.90
47520;DHT22;33252;48.122;11.538;2023-11-21T03:48:12;6.80;99.90
47520;DHT22;33252;48.122;11.538;2023-11-21T03:50:38;6.70;99.90
47520;DHT22;33252;48.122;11.538;2023-11-21T03:53:04;6.70;99.90
47520;DHT22;33252;48.122;11.538;2023-11-21T03:55:29;6.70;99.90
47520;DHT22;33252;48.122;11.538;2023-11-21T03:57:57;6.70;99.90
47520;DHT22;33252;48.122;11.538;2023-11-21T04:00:23;6.70;99.90
47520;DHT22;33252;48.122;11.538;2023-11-21T04:02:49;6.80;99.90
47520;DHT22;33252;48.122;11.538;2023-11-21T04:05:16;6.80;99.90
47520;DHT22;33252;48.122;11.538;2023-11-21T04:07:41;6.70;99.90
47520;DHT22;33252;48.122;11.538;2023-11-21T04:10:07;6.70;99.90
47520;DHT22;33252;48.122;11.538;2023-11-21T04:12:38;6.70;99.90
47520;DHT22;33252;48.122;11.538;2023-11-21T04:15:04;6.70;99.90
47520;DHT22;33252;48.122;11.538;2023-11-21T04:17:30;6.70;99.90
47520;DHT22;33252;48.122;11.538;2023-11-21T04:19:56;6.70;99.90
47520;DHT22;33252;48.122;11.538;2023-11-21T04:22:21;6.70;99.90
47520;DHT22;33252;48.122;11.538;2023-11-21T04:24:47;6.70;99.90
47520;DHT22;33252;48.122;11.538;2023-11-21T04:27:12;6.70;99.90
47520;DHT22;33252;48.122;11.538;2023-11-21T04:29:39;6.80;99.90
47520;DHT22;33252;48.122;11.538;2023-11-21T04:32:06;6.80;99.90
47520;DHT22;33252;48.122;11.538;2023-11-21T04:34:33;6.80;99.90
47520;DHT22;33252;48.122;11.538;2023-11-21T04:37:00;6.80;99.90
47520;DHT22;33252;48.122;11.538;2023-11-21T04:39:26;6.80;99.90
47520;DHT22;33252;48.122;11.538;2023-11-21T04:41:51;6.80;99.90
47520;DHT22;33252;48.122;11.538;2023-11-21T04:44:17;6.80;99.90
47520;DHT22;33252;48.122;11.538;2023-11-21T04:46:43;6.80;99.90
47520;DHT22;33252;48.122;11.538;2023-11-21T04:49:08;6.70;99.90
47520;DHT22;33252;48.122;11.538;2023-11-21T04:51:34;6.70;99.90
47520;DHT22;33252;48.122;11.538;2023-11-21T04:53:59;6.70;99.90
47520;DHT22;33252;48.122;11.538;2023-11-21T04:56:25;6.70;99.90
47520;DHT22;33252;48.122;11.538;2023-11-21T04:58:51;6.80;99.90
47520;DHT22;33252;48.122;11.538;2023-11-21T05:01:16;6.70;99.90
47520;DHT22;33252;48.122;11.538;2023-11-21T05:03:42;6.80;99.90
47520;DHT22;33252;48.122;11.538;2023-11-21T05:06:10;6.70;99.90
47520;DHT22;33252;48.122;11.538;2023-11-21T05:08:35;6.70;99.90
47520;DHT22;33252;48.122;11.538;2023-11-21T05:11:03;6.70;99.90
47520;DHT22;33252;48.122;11.538;2023-11-21T05:13:28;6.70;99.90
47520;DHT22;33252;48.122;11.538;2023-11-21T05:15:55;6.70;99.90
47520;DHT22;33252;48.122;11.538;2023-11-21T05:18:23;6.70;99.90
47520;DHT22;33252;48.122;11.538;2023-11-21T05:20:52;6.60;99.90
47520;DHT22;33252;48.122;11.538;2023-11-21T05:23:19;6.60;99.90
47520;DHT22;33252;48.122;11.538;2023-11-21T05:25:44;6.60;99.90
47520;DHT22;33252;48.122;11.538;2023-11-21T05:28:11;6.60;99.90
47520;DHT22;33252;48.122;11.538;2023-11-21T05:30:37;6.60;99.90
47520;DHT22;33252;48.122;11.538;2023-11-21T05:33:04;6.70;99.90
47520;DHT22;33252;48.122;11.538;2023-11-21T05:35:30;6.60;99.90
47520;DHT22;33252;48.122;11.538;2023-11-21T05:37:56;6.60;99.90
47520;DHT22;33252;48.122;11.538;2023-11-21T05:40:21;6.60;99.90
47520;DHT22;33252;48.122;11.538;2023-11-21T05:42:48;6.70;99.90
47520;DHT22;33252;48.122;11.538;2023-11-21T05:45:14;6.60;99.90
47520;DHT22;33252;48.122;11.538;2023-11-21T05:47:45;6.60;99.90
47520;DHT22;33252;48.122;11.538;2023-11-21T05:50:15;6.70;99.90
47520;DHT22;33252;48.122;11.538;2023-11-21T05:52:42;6.70;99.90
47520;DHT22;33252;48.122;11.538;2023-11-21T05:55:08;6.70;99.90
47520;DHT22;33252;48.122;11.538;2023-11-21T05:57:34;6.70;99.90
47520;DHT22;33252;48.122;11.538;2023-11-21T06:00:03;6.70;99.90
47520;DHT22;33252;48.122;11.538;2023-11-21T06:02:30;6.70;99.90
47520;DHT22;33252;48.122;11.538;2023-11-21T06:04:57;6.70;99.90
47520;DHT22;33252;48.122;11.538;2023-11-21T06:07:22;6.60;99.90
47520;DHT22;33252;48.122;11.538;2023-11-21T06:09:48;6.60;99.90
47520;DHT22;33252;48.122;11.538;2023-11-21T06:12:15;6.60;99.90
47520;DHT22;33252;48.122;11.538;2023-11-21T06:14:41;6.50;99.90
47520;DHT22;33252;48.122;11.538;2023-11-21T06:17:06;6.60;99.90
47520;DHT22;33252;48.122;11.538;2023-11-21T06:19:32;6.60;99.90
47520;DHT22;33252;48.122;11.538;2023-11-21T06:21:57;6.60;99.90
47520;DHT22;33252;48.122;11.538;2023-11-21T06:24:23;6.60;99.90
47520;DHT22;33252;48.122;11.538;2023-11-21T06:26:48;6.50;99.90
47520;DHT22;33252;48.122;11.538;2023-11-21T06:29:14;6.60;99.90
47520;DHT22;33252;48.122;11.538;2023-11-21T06:31:39;6.60;99.90
47520;DHT22;33252;48.122;11.538;2023-11-21T06:34:06;6.60;99.90
47520;DHT22;33252;48.122;11.538;2023-11-21T06:36:31;6.70;99.90
47520;DHT22;33252;48.122;11.538;2023-11-21T06:38:57;6.70;99.90
47520;DHT22;33252;48.122;11.538;2023-11-21T06:41:22;6.70;99.90
47520;DHT22;33252;48.122;11.538;2023-11-21T06:43:48;6.70;99.90
47520;DHT22;33252;48.122;11.538;2023-11-21T06:46:14;6.70;99.90
47520;DHT22;33252;48.122;11.538;2023-11-21T06:48:42;6.70;99.90
47520;DHT22;33252;48.122;11.538;2023-11-21T06:51:08;6.70;99.90
47520;DHT22;33252;48.122;11.538;2023-11-21T06:53:33;6.70;99.90
47520;DHT22;33252;48.122;11.538;2023-11-21T06:55:59;6.80;99.90
47520;DHT22;33252;48.122;11.538;2023-11-21T06:58:25;6.80;99.90
47520;DHT22;33252;48.122;11.538;2023-11-21T07:00:50;6.80;99.90
47520;DHT22;33252;48.122;11.538;2023-11-21T07:03:17;6.70;99.90
47520;DHT22;33252;48.122;11.538;2023-11-21T07:05:44;6.70;99.90
47520;DHT22;33252;48.122;11.538;2023-11-21T07:08:10;6.70;99.90
47520;DHT22;33252;48.122;11.538;2023-11-21T07:10:36;6.70;99.90
47520;DHT22;33252;48.122;11.538;2023-11-21T07:13:02;6.70;99.90
47520;DHT22;33252;48.122;11.538;2023-11-21T07:15:28;6.70;99.90
47520;DHT22;33252;48.122;11.538;2023-11-21T07:17:53;6.60;99.90
47520;DHT22;33252;48.122;11.538;2023-11-21T07:20:19;6.60;99.90
47520;DHT22;33252;48.122;11.538;2023-11-21T07:22:45;6.70;99.90
47520;DHT22;33252;48.122;11.538;2023-11-21T07:25:11;6.70;99.90
47520;DHT22;33252;48.122;11.538;2023-11-21T07:27:37;6.70;99.90
47520;DHT22;33252;48.122;11.538;2023-11-21T07:30:03;6.70;99.90
47520;DHT22;33252;48.122;11.538;2023-11-21T07:32:31;6.80;99.90
47520;DHT22;33252;48.122;11.538;2023-11-21T07:34:57;6.80;99.90
47520;DHT22;33252;48.122;11.538;2023-11-21T07:37:24;6.80;99.90
47520;DHT22;33252;48.122;11.538;2023-11-21T07:39:51;6.60;99.90
47520;DHT22;33252;48.122;11.538;2023-11-21T07:42:23;6.70;99.90
47520;DHT22;33252;48.122;11.538;2023-11-21T07:44:49;6.70;99.90
47520;DHT22;33252;48.122;11.538;2023-11-21T07:47:15;6.70;99.90
47520;DHT22;33252;48.122;11.538;2023-11-21T07:49:41;6.70;99.90
47520;DHT22;33252;48.122;11.538;2023-11-21T07:52:09;6.80;99.90
47520;DHT22;33252;48.122;11.538;2023-11-21T07:54:35;6.90;99.90
47520;DHT22;33252;48.122;11.538;2023-11-21T07:57:01;6.80;99.90
47520;DHT22;33252;48.122;11.538;2023-11-21T07:59:27;6.90;99.90
47520;DHT22;33252;48.122;11.538;2023-11-21T08:01:52;6.90;99.90
47520;DHT22;33252;48.122;11.538;2023-11-21T08:04:18;6.90;99.90
47520;DHT22;33252;48.122;11.538;2023-11-21T08:06:43;7.00;99.90
47520;DHT22;33252;48.122;11.538;2023-11-21T08:09:09;7.10;99.90
47520;DHT22;33252;48.122;11.538;2023-11-21T08:11:35;7.10;99.90
47520;DHT22;33252;48.122;11.538;2023-11-21T08:14:01;7.10;99.90
47520;DHT22;33252;48.122;11.538;2023-11-21T08:16:26;7.10;99.90
47520;DHT22;33252;48.122;11.538;2023-11-21T08:18:52;7.10;99.90
47520;DHT22;33252;48.122;11.538;2023-11-21T08:21:19;7.10;99.90
47520;DHT22;33252;48.122;11.538;2023-11-21T08:23:45;7.10;99.90
47520;DHT22;33252;48.122;11.538;2023-11-21T08:26:10;7.20;99.90
47520;DHT22;33252;48.122;11.538;2023-11-21T08:28:36;7.10;99.90
47520;DHT22;33252;48.122;11.538;2023-11-21T08:31:01;7.20;99.90
47520;DHT22;33252;48.122;11.538;2023-11-21T08:33:27;7.20;99.90
47520;DHT22;33252;48.122;11.538;2023-11-21T08:35:53;7.20;99.90
47520;DHT22;33252;48.122;11.538;2023-11-21T08:38:18;7.10;99.90
47520;DHT22;33252;48.122;11.538;2023-11-21T08:40:44;7.20;99.90
47520;DHT22;33252;48.122;11.538;2023-11-21T08:43:09;7.10;99.90
47520;DHT22;33252;48.122;11.538;2023-11-21T08:45:37;7.20;99.90
47520;DHT22;33252;48.122;11.538;2023-11-21T08:48:03;7.10;99.90
47520;DHT22;33252;48.122;11.538;2023-11-21T08:50:29;7.10;99.90
47520;DHT22;33252;48.122;11.538;2023-11-21T08:52:54;7.20;99.90
47520;DHT22;33252;48.122;11.538;2023-11-21T08:55:20;7.30;99.90
47520;DHT22;33252;48.122;11.538;2023-11-21T08:57:46;7.30;99.90
47520;DHT22;33252;48.122;11.538;2023-11-21T09:00:12;7.40;99.90
47520;DHT22;33252;48.122;11.538;2023-11-21T09:02:39;7.40;99.90
47520;DHT22;33252;48.122;11.538;2023-11-21T09:05:08;7.50;99.90
47520;DHT22;33252;48.122;11.538;2023-11-21T09:07:34;7.60;99.90
47520;DHT22;33252;48.122;11.538;2023-11-21T09:10:01;7.60;99.90
47520;DHT22;33252;48.122;11.538;2023-11-21T09:12:26;7.60;99.90
47520;DHT22;33252;48.122;11.538;2023-11-21T09:14:52;7.60;99.90
47520;DHT22;33252;48.122;11.538;2023-11-21T09:17:17;7.60;99.90
47520;DHT22;33252;48.122;11.538;2023-11-21T09:19:44;7.60;99.90
47520;DHT22;33252;48.122;11.538;2023-11-21T09:22:12;7.60;99.90
47520;DHT22;33252;48.122;11.538;2023-11-21T09:24:38;7.50;99.90
47520;DHT22;33252;48.122;11.538;2023-11-21T09:27:03;7.50;99.90
47520;DHT22;33252;48.122;11.538;2023-11-21T09:29:30;7.40;99.90
47520;DHT22;33252;48.122;11.538;2023-11-21T09:31:56;7.50;99.90
47520;DHT22;33252;48.122;11.538;2023-11-21T09:34:24;7.60;99.90
47520;DHT22;33252;48.122;11.538;2023-11-21T09:36:51;7.60;99.90
47520;DHT22;33252;48.122;11.538;2023-11-21T09:39:17;7.60;99.90
47520;DHT22;33252;48.122;11.538;2023-11-21T09:41:51;7.70;99.90
47520;DHT22;33252;48.122;11.538;2023-11-21T09:44:34;7.70;99.90
47520;DHT22;33252;48.122;11.538;2023-11-21T09:47:00;7.80;99.90
47520;DHT22;33252;48.122;11.538;2023-11-21T09:49:28;7.80;99.90
47520;DHT22;33252;48.122;11.538;2023-11-21T09:51:58;7.80;99.90
47520;DHT22;33252;48.122;11.538;2023-11-21T09:54:28;7.80;99.90
47520;DHT22;33252;48.122;11.538;2023-11-21T09:56:54;7.80;99.90
47520;DHT22;33252;48.122;11.538;2023-11-21T09:59:21;7.70;99.90
47520;DHT22;33252;48.122;11.538;2023-11-21T10:01:46;7.70;99.90
47520;DHT22;33252;48.122;11.538;2023-11-21T10:04:13;7.50;99.90
47520;DHT22;33252;48.122;11.538;2023-11-21T10:06:40;7.60;99.90
47520;DHT22;33252;48.122;11.538;2023-11-21T10:09:12;7.50;99.90
47520;DHT22;33252;48.122;11.538;2023-11-21T10:11:41;7.60;99.90
47520;DHT22;33252;48.122;11.538;2023-11-21T10:14:11;7.70;99.90
47520;DHT22;33252;48.122;11.538;2023-11-21T10:16:41;7.80;99.90
47520;DHT22;33252;48.122;11.538;2023-11-21T10:19:10;7.90;99.90
47520;DHT22;33252;48.122;11.538;2023-11-21T10:21:36;8.10;99.90
47520;DHT22;33252;48.122;11.538;2023-11-21T10:24:03;8.20;99.90
47520;DHT22;33252;48.122;11.538;2023-11-21T10:26:29;8.30;99.90
47520;DHT22;33252;48.122;11.538;2023-11-21T10:29:01;8.20;99.90
47520;DHT22;33252;48.122;11.538;2023-11-21T10:31:31;8.20;99.90
47520;DHT22;33252;48.122;11.538;2023-11-21T10:34:12;8.20;99.90
47520;DHT22;33252;48.122;11.538;2023-11-21T10:36:38;8.30;99.90
47520;DHT22;33252;48.122;11.538;2023-11-21T10:39:03;8.30;99.90
47520;DHT22;33252;48.122;11.538;2023-11-21T10:41:29;8.20;99.90
47520;DHT22;33252;48.122;11.538;2023-11-21T10:43:55;8.20;99.90
47520;DHT22;33252;48.122;11.538;2023-11-21T10:46:21;8.10;99.90
47520;DHT22;33252;48.122;11.538;2023-11-21T10:48:57;8.30;99.90
47520;DHT22;33252;48.122;11.538;2023-11-21T10:51:23;8.30;99.90
47520;DHT22;33252;48.122;11.538;2023-11-21T10:53:52;8.30;99.90
47520;DHT22;33252;48.122;11.538;2023-11-21T10:56:18;8.40;99.90
47520;DHT22;33252;48.122;11.538;2023-11-21T10:58:46;8.40;99.90
47520;DHT22;33252;48.122;11.538;2023-11-21T11:01:11;8.50;99.90
47520;DHT22;33252;48.122;11.538;2023-11-21T11:03:39;8.60;99.90
47520;DHT22;33252;48.122;11.538;2023-11-21T11:06:07;8.60;99.90
47520;DHT22;33252;48.122;11.538;2023-11-21T11:08:40;8.70;99.90
47520;DHT22;33252;48.122;11.538;2023-11-21T11:11:06;8.60;99.90
47520;DHT22;33252;48.122;11.538;2023-11-21T11:13:33;8.40;99.90
47520;DHT22;33252;48.122;11.538;2023-11-21T11:15:59;8.30;99.90
47520;DHT22;33252;48.122;11.538;2023-11-21T11:18:29;8.50;99.90
47520;DHT22;33252;48.122;11.538;2023-11-21T11:21:09;8.70;99.90
47520;DHT22;33252;48.122;11.538;2023-11-21T11:32:46;8.90;99.90
47520;DHT22;33252;48.122;11.538;2023-11-21T11:35:23;8.90;99.90
47520;DHT22;33252;48.122;11.538;2023-11-21T11:37:50;8.90;99.90
47520;DHT22;33252;48.122;11.538;2023-11-21T11:40:15;8.80;99.90
47520;DHT22;33252;48.122;11.538;2023-11-21T11:42:56;8.70;99.90
47520;DHT22;33252;48.122;11.538;2023-11-21T11:45:26;8.80;99.90
47520;DHT22;33252;48.122;11.538;2023-11-21T11:47:57;8.80;99.90
47520;DHT22;33252;48.122;11.538;2023-11-21T11:50:23;8.70;99.90
47520;DHT22;33252;48.122;11.538;2023-11-21T11:52:51;8.80;99.90
47520;DHT22;33252;48.122;11.538;2023-11-21T11:55:19;8.80;99.90
47520;DHT22;33252;48.122;11.538;2023-11-21T11:57:46;8.90;99.90
47520;DHT22;33252;48.122;11.538;2023-11-21T12:00:33;8.80;99.90
47520;DHT22;33252;48.122;11.538;2023-11-21T12:03:04;8.70;99.90
47520;DHT22;33252;48.122;11.538;2023-11-21T12:05:31;8.80;99.90
47520;DHT22;33252;48.122;11.538;2023-11-21T12:08:01;8.80;99.90
47520;DHT22;33252;48.122;11.538;2023-11-21T12:10:31;8.90;99.90
47520;DHT22;33252;48.122;11.538;2023-11-21T12:13:01;8.70;99.90
47520;DHT22;33252;48.122;11.538;2023-11-21T12:15:28;8.60;99.90
47520;DHT22;33252;48.122;11.538;2023-11-21T12:17:57;8.70;99.90
47520;DHT22;33252;48.122;11.538;2023-11-21T12:20:25;8.80;99.90
47520;DHT22;33252;48.122;11.538;2023-11-21T12:22:53;8.90;99.90
47520;DHT22;33252;48.122;11.538;2023-11-21T12:25:22;9.00;99.90
47520;DHT22;33252;48.122;11.538;2023-11-21T12:27:49;9.10;99.90
47520;DHT22;33252;48.122;11.538;2023-11-21T12:30:17;9.20;99.90
47520;DHT22;33252;48.122;11.538;2023-11-21T12:32:44;9.20;99.90
47520;DHT22;33252;48.122;11.538;2023-11-21T12:35:12;9.30;99.90
47520;DHT22;33252;48.122;11.538;2023-11-21T12:37:38;9.30;99.90
47520;DHT22;33252;48.122;11.538;2023-11-21T12:40:08;9.10;99.90
47520;DHT22;33252;48.122;11.538;2023-11-21T12:42:39;9.10;99.90
47520;DHT22;33252;48.122;11.538;2023-11-21T12:45:26;9.20;99.90
47520;DHT22;33252;48.122;11.538;2023-11-21T12:48:04;8.90;99.90
47520;DHT22;33252;48.122;11.538;2023-11-21T12:50:34;8.80;99.90
47520;DHT22;33252;48.122;11.538;2023-11-21T12:53:05;8.70;99.90
47520;DHT22;33252;48.122;11.538;2023-11-21T12:55:34;8.70;99.90
47520;DHT22;33252;48.122;11.538;2023-11-21T12:58:04;8.70;99.90
47520;DHT22;33252;48.122;11.538;2023-11-21T13:00:44;8.60;99.90
47520;DHT22;33252;48.122;11.538;2023-11-21T13:03:12;8.60;99.90
47520;DHT22;33252;48.122;11.538;2023-11-21T13:05:41;8.50;99.90
47520;DHT22;33252;48.122;11.538;2023-11-21T13:08:11;8.50;99.90
47520;DHT22;33252;48.122;11.538;2023-11-21T13:10:43;8.50;99.90
47520;DHT22;33252;48.122;11.538;2023-11-21T13:13:11;8.50;99.90
47520;DHT22;33252;48.122;11.538;2023-11-21T13:15:47;8.60;99.90
47520;DHT22;33252;48.122;11.538;2023-11-21T13:18:13;8.70;99.90
47520;DHT22;33252;48.122;11.538;2023-11-21T13:20:40;8.70;99.90
47520;DHT22;33252;48.122;11.538;2023-11-21T13:23:10;8.70;99.90
47520;DHT22;33252;48.122;11.538;2023-11-21T13:25:39;8.70;99.90
47520;DHT22;33252;48.122;11.538;2023-11-21T13:28:07;8.60;99.90
47520;DHT22;33252;48.122;11.538;2023-11-21T13:30:33;8.60;99.90
47520;DHT22;33252;48.122;11.538;2023-11-21T13:33:02;8.70;99.90
47520;DHT22;33252;48.122;11.538;2023-11-21T13:35:32;8.60;99.90
47520;DHT22;33252;48.122;11.538;2023-11-21T13:38:14;8.70;99.90
47520;DHT22;33252;48.122;11.538;2023-11-21T13:40:41;8.60;99.90
47520;DHT22;33252;48.122;11.538;2023-11-21T13:43:16;8.70;99.90
47520;DHT22;33252;48.122;11.538;2023-11-21T13:45:44;8.70;99.90
47520;DHT22;33252;48.122;11.538;2023-11-21T13:48:10;8.80;99.90
47520;DHT22;33252;48.122;11.538;2023-11-21T13:50:45;8.80;99.90
47520;DHT22;33252;48.122;11.538;2023-11-21T13:53:29;8.90;99.90
47520;DHT22;33252;48.122;11.538;2023-11-21T13:55:54;9.00;99.90
47520;DHT22;33252;48.122;11.538;2023-11-21T13:58:21;9.20;99.90
47520;DHT22;33252;48.122;11.538;2023-11-21T14:01:00;9.10;99.90
47520;DHT22;33252;48.122;11.538;2023-11-21T14:03:31;8.50;99.90
47520;DHT22;33252;48.122;11.538;2023-11-21T14:06:10;8.40;99.90
47520;DHT22;33252;48.122;11.538;2023-11-21T14:08:40;8.10;99.90
47520;DHT22;33252;48.122;11.538;2023-11-21T14:11:07;7.90;99.90
47520;DHT22;33252;48.122;11.538;2023-11-21T14:13:32;7.90;99.90
47520;DHT22;33252;48.122;11.538;2023-11-21T14:15:59;7.90;99.90
47520;DHT22;33252;48.122;11.538;2023-11-21T14:18:28;7.80;99.90
47520;DHT22;33252;48.122;11.538;2023-11-21T14:21:04;7.70;99.90
47520;DHT22;33252;48.122;11.538;2023-11-21T14:23:31;7.80;99.90
47520;DHT22;33252;48.122;11.538;2023-11-21T14:25:56;7.70;99.90
47520;DHT22;33252;48.122;11.538;2023-11-21T14:28:23;7.60;99.90
47520;DHT22;33252;48.122;11.538;2023-11-21T14:30:49;7.60;99.90
47520;DHT22;33252;48.122;11.538;2023-11-21T14:33:14;7.70;99.90
47520;DHT22;33252;48.122;11.538;2023-11-21T14:35:42;7.70;99.90
47520;DHT22;33252;48.122;11.538;2023-11-21T14:38:08;7.70;99.90
47520;DHT22;33252;48.122;11.538;2023-11-21T14:40:35;7.60;99.90
47520;DHT22;33252;48.122;11.538;2023-11-21T14:43:04;7.60;99.90
47520;DHT22;33252;48.122;11.538;2023-11-21T14:45:33;7.50;99.90
47520;DHT22;33252;48.122;11.538;2023-11-21T14:48:00;7.40;99.90
47520;DHT22;33252;48.122;11.538;2023-11-21T14:50:34;7.50;99.90
47520;DHT22;33252;48.122;11.538;2023-11-21T14:53:19;7.40;99.90
47520;DHT22;33252;48.122;11.538;2023-11-21T14:56:04;7.50;99.90
47520;DHT22;33252;48.122;11.538;2023-11-21T14:58:30;7.50;99.90
47520;DHT22;33252;48.122;11.538;2023-11-21T15:00:57;7.50;99.90
47520;DHT22;33252;48.122;11.538;2023-11-21T15:03:27;7.50;99.90
47520;DHT22;33252;48.122;11.538;2023-11-21T15:05:56;7.60;99.90
47520;DHT22;33252;48.122;11.538;2023-11-21T15:08:22;7.50;99.90
47520;DHT22;33252;48.122;11.538;2023-11-21T15:10:55;7.50;99.90
47520;DHT22;33252;48.122;11.538;2023-11-21T15:13:21;7.60;99.90
47520;DHT22;33252;48.122;11.538;2023-11-21T15:15:48;7.50;99.90
47520;DHT22;33252;48.122;11.538;2023-11-21T15:18:14;7.40;99.90
47520;DHT22;33252;48.122;11.538;2023-11-21T15:20:40;7.50;99.90
47520;DHT22;33252;48.122;11.538;2023-11-21T15:23:06;7.50;99.90
47520;DHT22;33252;48.122;11.538;2023-11-21T15:25:32;7.40;99.90
47520;DHT22;33252;48.122;11.538;2023-11-21T15:27:59;7.30;99.90
47520;DHT22;33252;48.122;11.538;2023-11-21T15:30:25;7.40;99.90
47520;DHT22;33252;48.122;11.538;2023-11-21T15:32:51;7.30;99.90
47520;DHT22;33252;48.122;11.538;2023-11-21T15:35:18;7.30;99.90
47520;DHT22;33252;48.122;11.538;2023-11-21T15:37:44;7.20;99.90
47520;DHT22;33252;48.122;11.538;2023-11-21T15:40:11;7.20;99.90